Degelis, Canada
Current Conditions -  °F | °C
As of 6:53 AM on Friday 31 Oct 2014 (Local Time) from KFVE Reporting Station
Overcast Overcast  
Wind Chill: 33°   Ceiling: 4600
Heat Index: 33°   Visibility: 10mi
Dew Point: 28°   Wind: 3mph
Humidity: 82%   Direction: 340°NNW
Pressure: 29.98"   Gusts: NA
Location:  47.55°N, 68.64°W
Report Text: KFVE 311053Z AUTO 34003KT 10SM OVC046 01/M02 A2998 RMK AO2 SLP161 T00061022
Loading
Personal Weather Stations






























Interactive Weather Map
Tropical Storm Tracking
New forecast layout! Learn more

10-Day Weather Forecast

Advertisements
Track Severe Weather on mobile